createdAt,value
2023-01-11T00:00:50.539Z,101483.75
2023-01-11T00:03:19.563Z,101479.38
2023-01-11T00:05:46.885Z,101479.28
2023-01-11T00:08:13.943Z,101486.13
2023-01-11T00:10:41.283Z,101471.09
2023-01-11T00:13:08.306Z,101483.22
2023-01-11T00:15:38.427Z,101479.72
2023-01-11T00:18:05.585Z,101482.06
2023-01-11T00:20:33.141Z,101484.69
2023-01-11T00:23:00.142Z,101495.09
2023-01-11T00:25:27.479Z,101504.53
2023-01-11T00:27:54.839Z,101502.72
2023-01-11T00:30:22.395Z,101506.13
2023-01-11T00:32:49.500Z,101508.66
2023-01-11T00:35:17.050Z,101512.91
2023-01-11T00:37:44.096Z,101521.56
2023-01-11T00:40:11.832Z,101526.72
2023-01-11T00:42:57.461Z,101522.34
2023-01-11T00:46:03.423Z,101531.94
2023-01-11T00:48:30.669Z,101538.81
2023-01-11T00:50:58.044Z,101552.69
2023-01-11T00:53:25.093Z,101563.16
2023-01-11T00:55:52.398Z,101551.78
2023-01-11T00:58:19.366Z,101552.59
2023-01-11T01:00:46.648Z,101565.50
2023-01-11T01:03:13.653Z,101573.34
2023-01-11T01:05:40.941Z,101566.31
2023-01-11T01:08:07.973Z,101558.44
2023-01-11T01:10:35.297Z,101566.13
2023-01-11T01:13:20.792Z,101559.91
2023-01-11T01:15:48.093Z,101565.91
2023-01-11T01:18:15.087Z,101571.94
2023-01-11T01:20:42.481Z,101564.88
2023-01-11T01:23:09.463Z,101570.06
2023-01-11T01:25:37.924Z,101576.91
2023-01-11T01:28:05.057Z,101580.31
2023-01-11T01:30:33.836Z,101576.91
2023-01-11T01:33:00.980Z,101576.84
2023-01-11T01:35:28.318Z,101570.78
2023-01-11T01:37:55.328Z,101578.28
2023-01-11T01:40:22.902Z,101573.09
2023-01-11T01:42:54.186Z,101573.97
2023-01-11T01:45:27.761Z,101580.09
2023-01-11T01:48:06.148Z,101580.06
2023-01-11T01:50:37.325Z,101580.91
2023-01-11T01:53:18.624Z,101580.81
2023-01-11T01:55:52.125Z,101578.28
2023-01-11T01:58:23.351Z,101568.50
2023-01-11T02:00:51.015Z,101584.88
2023-01-11T02:03:22.063Z,101584.69
2023-01-11T02:05:51.997Z,101580.91
2023-01-11T02:08:31.508Z,101594.72
2023-01-11T02:10:59.842Z,101592.97
2023-01-11T02:13:27.276Z,101598.94
2023-01-11T02:16:08.004Z,101613.63
2023-01-11T02:18:37.213Z,101621.38
2023-01-11T02:21:34.525Z,101624.81
2023-01-11T02:24:35.359Z,101627.31
2023-01-11T02:27:52.529Z,101619.59
2023-01-11T02:30:53.758Z,101613.53
2023-01-11T02:33:24.400Z,101585.03
2023-01-11T02:36:23.869Z,101602.28
2023-01-11T02:39:23.948Z,101606.41
2023-01-11T02:42:15.496Z,101602.03
2023-01-11T02:45:08.302Z,101625.94
2023-01-11T02:47:53.279Z,101623.38
2023-01-11T02:50:26.821Z,101641.53
2023-01-11T02:53:03.134Z,101631.75
2023-01-11T02:55:35.219Z,101638.78
2023-01-11T02:58:06.180Z,101638.69
2023-01-11T03:00:35.123Z,101647.28
2023-01-11T03:03:22.798Z,101654.94
2023-01-11T03:05:57.792Z,101662.53
2023-01-11T03:08:30.778Z,101674.75
2023-01-11T03:11:14.498Z,101639.94
2023-01-11T03:13:48.735Z,101653.81
2023-01-11T03:16:43.772Z,101657.94
2023-01-11T03:19:27.040Z,101663.00
2023-01-11T03:22:05.485Z,101665.47
2023-01-11T03:24:55.671Z,101656.75
2023-01-11T03:27:43.027Z,101653.00
2023-01-11T03:30:12.851Z,101653.88
2023-01-11T03:32:55.009Z,101664.13
2023-01-11T03:35:36.698Z,101687.72
2023-01-11T03:38:10.983Z,101682.50
2023-01-11T03:40:43.079Z,101682.69
2023-01-11T03:43:13.768Z,101676.56
2023-01-11T03:45:52.951Z,101686.00
2023-01-11T03:48:24.361Z,101684.91
2023-01-11T03:50:54.622Z,101682.94
2023-01-11T03:53:25.788Z,101688.00
2023-01-11T03:55:57.021Z,101681.09
2023-01-11T03:58:27.339Z,101674.22
2023-01-11T04:00:56.437Z,101675.00
2023-01-11T04:03:26.215Z,101696.88
2023-01-11T04:05:58.104Z,101685.63
2023-01-11T04:08:26.028Z,101692.47
2023-01-11T04:10:53.128Z,101696.84
2023-01-11T04:13:20.745Z,101689.06
2023-01-11T04:15:47.687Z,101697.81
2023-01-11T04:18:14.980Z,101702.34
2023-01-11T04:20:42.032Z,101697.06
2023-01-11T04:23:12.306Z,101696.22
2023-01-11T04:25:39.283Z,101689.94
2023-01-11T04:28:06.644Z,101681.09
2023-01-11T04:30:34.123Z,101682.59
2023-01-11T04:33:01.492Z,101687.63
2023-01-11T04:35:28.681Z,101695.28
2023-01-11T04:37:58.807Z,101696.06
2023-01-11T04:40:25.835Z,101703.91
2023-01-11T04:42:55.722Z,101701.97
2023-01-11T04:45:22.653Z,101693.25
2023-01-11T04:48:02.670Z,101692.34
2023-01-11T04:50:29.695Z,101700.13
2023-01-11T04:52:59.283Z,101693.25
2023-01-11T04:55:27.678Z,101689.72
2023-01-11T04:57:54.933Z,101701.63
2023-01-11T05:00:22.167Z,101706.50
2023-01-11T05:02:49.626Z,101719.44
2023-01-11T05:05:18.117Z,101714.84
2023-01-11T05:07:45.430Z,101704.94
2023-01-11T05:10:12.543Z,101725.00
2023-01-11T05:12:40.247Z,101717.97
2023-01-11T05:15:08.411Z,101717.97
2023-01-11T05:17:36.180Z,101716.03
2023-01-11T05:20:04.640Z,101730.59
2023-01-11T05:22:34.673Z,101731.38
2023-01-11T05:25:05.057Z,101739.31
2023-01-11T05:27:34.324Z,101734.19
2023-01-11T05:30:02.720Z,101729.09
2023-01-11T05:32:31.382Z,101730.88
2023-01-11T05:34:59.065Z,101753.34
2023-01-11T05:40:08.741Z,101755.75
2023-01-11T05:42:36.260Z,101758.88
2023-01-11T05:45:21.910Z,101749.38
2023-01-11T05:47:52.386Z,101753.50
2023-01-11T05:50:19.668Z,101757.84
2023-01-11T05:52:48.135Z,101776.16
2023-01-11T05:55:15.330Z,101776.88
2023-01-11T05:57:43.725Z,101779.69
2023-01-11T06:00:12.452Z,101761.47
2023-01-11T06:02:40.964Z,101760.59
2023-01-11T06:05:11.205Z,101767.41
2023-01-11T06:07:40.267Z,101764.88
2023-01-11T06:10:07.905Z,101764.75
2023-01-11T06:12:35.466Z,101769.16
2023-01-11T06:15:03.401Z,101781.44
2023-01-11T06:17:31.355Z,101768.94
2023-01-11T06:19:58.540Z,101773.88
2023-01-11T06:22:26.015Z,101783.41
2023-01-11T06:24:53.070Z,101782.59
2023-01-11T06:27:20.648Z,101779.16
2023-01-11T06:29:47.792Z,101782.44
2023-01-11T06:32:15.193Z,101773.56
2023-01-11T06:34:42.183Z,101787.53
2023-01-11T06:37:09.543Z,101790.94
2023-01-11T06:39:36.469Z,101777.28
2023-01-11T06:42:03.851Z,101775.69
2023-01-11T06:44:30.935Z,101777.16
2023-01-11T06:46:58.233Z,101802.38
2023-01-11T06:49:25.224Z,101802.38
2023-01-11T06:51:52.623Z,101786.59
2023-01-11T06:54:23.068Z,101792.47
2023-01-11T06:56:50.453Z,101797.56
2023-01-11T06:59:17.487Z,101800.72
2023-01-11T07:01:45.140Z,101780.44
2023-01-11T07:04:13.413Z,101787.03
2023-01-11T07:06:40.962Z,101766.03
2023-01-11T07:09:07.916Z,101772.97
2023-01-11T07:11:40.456Z,101772.03
2023-01-11T07:14:07.470Z,101786.72
2023-01-11T07:16:34.969Z,101786.78
2023-01-11T07:19:05.041Z,101818.63
2023-01-11T07:21:35.106Z,101837.78
2023-01-11T07:24:06.443Z,101834.16
2023-01-11T07:26:43.468Z,101840.44
2023-01-11T07:29:13.112Z,101843.91
2023-01-11T07:31:40.859Z,101832.03
2023-01-11T07:34:09.764Z,101813.06
2023-01-11T07:36:45.642Z,101794.66
2023-01-11T07:39:43.888Z,101810.13
2023-01-11T07:42:31.216Z,101830.88
2023-01-11T07:44:58.220Z,101822.91
2023-01-11T07:47:25.795Z,101822.66
2023-01-11T07:49:53.395Z,101834.31
2023-01-11T07:52:20.763Z,101831.38
2023-01-11T07:54:51.410Z,101847.88
2023-01-11T07:57:21.337Z,101846.25
2023-01-11T07:59:48.442Z,101837.44
2023-01-11T08:02:22.536Z,101833.91
2023-01-11T08:04:51.755Z,101849.53
2023-01-11T08:07:28.696Z,101844.84
2023-01-11T08:09:55.780Z,101843.38
2023-01-11T08:12:44.269Z,101848.72
2023-01-11T08:18:08.240Z,101848.22
2023-01-11T08:20:35.309Z,101844.69
2023-01-11T08:23:05.369Z,101825.31
2023-01-11T08:25:33.197Z,101842.09
2023-01-11T08:28:07.881Z,101839.16
2023-01-11T08:30:36.196Z,101851.16
2023-01-11T08:33:05.011Z,101845.91
2023-01-11T08:35:37.123Z,101871.81
2023-01-11T08:38:04.587Z,101864.72
2023-01-11T08:40:31.628Z,101853.59
2023-01-11T08:42:59.543Z,101845.97
2023-01-11T08:45:27.154Z,101857.03
2023-01-11T08:47:55.518Z,101847.91
2023-01-11T08:50:23.002Z,101854.19
2023-01-11T08:52:55.113Z,101860.16
2023-01-11T08:55:26.076Z,101855.75
2023-01-11T08:57:53.427Z,101865.34
2023-01-11T09:00:22.100Z,101834.50
2023-01-11T09:02:50.075Z,101856.91
2023-01-11T09:05:18.343Z,101859.69
2023-01-11T09:07:47.160Z,101839.47
2023-01-11T09:10:14.137Z,101849.16
2023-01-11T09:12:41.591Z,101863.06
2023-01-11T09:15:11.086Z,101853.66
2023-01-11T09:17:39.848Z,101854.44
2023-01-11T09:20:07.369Z,101861.19
2023-01-11T09:22:36.360Z,101866.38
2023-01-11T09:25:04.596Z,101857.72
2023-01-11T09:27:42.573Z,101866.38
2023-01-11T09:30:13.002Z,101864.81
2023-01-11T09:32:44.158Z,101875.16
2023-01-11T09:35:11.206Z,101870.00
2023-01-11T09:37:45.306Z,101855.91
2023-01-11T09:40:20.899Z,101859.50
2023-01-11T09:43:00.962Z,101857.47
2023-01-11T09:45:31.194Z,101862.78
2023-01-11T09:48:28.696Z,101858.59
2023-01-11T09:50:57.745Z,101834.00
2023-01-11T09:53:35.098Z,101854.06
2023-01-11T09:56:06.425Z,101861.94
2023-01-11T09:59:06.539Z,101852.47
2023-01-11T10:01:49.791Z,101854.06
2023-01-11T10:04:37.459Z,101854.59
2023-01-11T10:07:23.060Z,101861.06
2023-01-11T10:18:26.160Z,101875.31
2023-01-11T10:19:39.965Z,101869.59
2023-01-11T10:22:19.548Z,101842.66
2023-01-11T10:25:11.584Z,101860.31
2023-01-11T10:27:49.438Z,101857.81
2023-01-11T10:30:52.262Z,101864.53
2023-01-11T10:34:03.186Z,101862.09
2023-01-11T10:36:56.516Z,101846.34
2023-01-11T10:39:46.895Z,101853.41
2023-01-11T10:42:26.402Z,101838.78
2023-01-11T10:45:05.902Z,101847.78
2023-01-11T10:47:41.668Z,101848.66
2023-01-11T10:50:27.044Z,101849.53
2023-01-11T10:53:17.085Z,101839.84
2023-01-11T10:55:57.914Z,101832.78
2023-01-11T10:58:49.791Z,101853.06
2023-01-11T11:01:41.264Z,101843.75
2023-01-11T11:04:25.198Z,101850.13
2023-01-11T11:07:34.560Z,101842.28
2023-01-11T11:10:10.989Z,101853.06
2023-01-11T11:12:44.946Z,101843.53
2023-01-11T11:15:42.271Z,101833.03
2023-01-11T11:18:09.999Z,101836.31
2023-01-11T11:20:37.372Z,101837.44
2023-01-11T11:23:04.762Z,101841.59
2023-01-11T11:25:37.508Z,101841.41
2023-01-11T11:28:08.563Z,101831.81
2023-01-11T11:30:43.489Z,101819.66
2023-01-11T11:33:24.070Z,101823.16
2023-01-11T11:35:58.652Z,101831.94
2023-01-11T11:38:31.846Z,101839.66
2023-01-11T11:41:13.353Z,101824.91
2023-01-11T11:43:43.604Z,101818.44
2023-01-11T11:46:20.284Z,101827.38
2023-01-11T11:49:17.656Z,101822.81
2023-01-11T11:51:47.162Z,101813.25
2023-01-11T11:54:47.457Z,101819.34
2023-01-11T11:57:28.072Z,101818.34
2023-01-11T12:00:20.535Z,101828.28
2023-01-11T12:02:54.372Z,101818.59
2023-01-11T12:05:22.204Z,101828.19
2023-01-11T12:07:55.135Z,101816.00
2023-01-11T12:10:28.161Z,101825.00
2023-01-11T12:13:00.673Z,101810.69
2023-01-11T12:15:30.227Z,101811.09
2023-01-11T12:18:32.934Z,101822.72
2023-01-11T12:21:32.496Z,101821.41
2023-01-11T12:24:08.787Z,101808.66
2023-01-11T12:26:59.061Z,101814.84
2023-01-11T12:29:51.750Z,101813.81
2023-01-11T12:32:22.177Z,101822.28
2023-01-11T12:35:25.487Z,101817.88
2023-01-11T12:38:11.569Z,101821.59
2023-01-11T12:41:00.103Z,101817.19
2023-01-11T12:44:03.462Z,101824.81
2023-01-11T12:46:43.447Z,101824.81
2023-01-11T12:49:29.849Z,101836.28
2023-01-11T12:52:21.390Z,101837.84
2023-01-11T12:55:20.786Z,101830.00
2023-01-11T12:58:10.641Z,101832.75
2023-01-11T13:00:50.490Z,101835.34
2023-01-11T13:03:35.487Z,101818.75
2023-01-11T13:06:40.347Z,101819.44
2023-01-11T13:09:27.016Z,101802.72
2023-01-11T13:12:05.338Z,101811.41
2023-01-11T13:14:32.218Z,101819.91
2023-01-11T13:17:06.038Z,101820.50
2023-01-11T13:20:13.186Z,101819.72
2023-01-11T13:22:49.816Z,101843.81
2023-01-11T13:25:46.572Z,101844.34
2023-01-11T13:28:24.370Z,101865.06
2023-01-11T13:30:52.021Z,101873.69
2023-01-11T13:33:23.596Z,101883.13
2023-01-11T13:36:01.853Z,101875.38
2023-01-11T13:39:01.003Z,101871.91
2023-01-11T13:41:53.261Z,101864.19
2023-01-11T13:44:38.470Z,101852.88
2023-01-11T13:47:45.007Z,101868.50
2023-01-11T13:50:28.225Z,101843.75
2023-01-11T13:53:15.753Z,101844.66
2023-01-11T13:56:08.550Z,101868.91
2023-01-11T13:59:00.064Z,101866.38
2023-01-11T14:01:58.217Z,101867.06
2023-01-11T14:04:33.065Z,101865.22
2023-01-11T14:07:28.123Z,101866.06
2023-01-11T14:10:20.331Z,101872.91
2023-01-11T14:12:50.824Z,101871.09
2023-01-11T14:15:59.716Z,101876.25
2023-01-11T14:18:44.634Z,101865.06
2023-01-11T14:21:25.957Z,101874.16
2023-01-11T14:23:55.159Z,101876.97
2023-01-11T14:26:31.274Z,101873.41
2023-01-11T14:29:18.041Z,101866.44
2023-01-11T14:32:00.300Z,101865.66
2023-01-11T14:34:52.019Z,101855.06
2023-01-11T14:37:56.263Z,101864.69
2023-01-11T14:41:06.097Z,101861.06
2023-01-11T14:44:25.008Z,101857.59
2023-01-11T14:47:22.295Z,101862.78
2023-01-11T14:49:58.276Z,101871.16
2023-01-11T14:52:39.513Z,101876.47
2023-01-11T14:55:21.065Z,101872.19
2023-01-11T14:58:03.689Z,101869.59
2023-01-11T15:00:30.742Z,101865.16
2023-01-11T15:03:20.778Z,101856.31
2023-01-11T15:05:54.531Z,101850.38
2023-01-11T15:08:25.145Z,101847.09
2023-01-11T15:11:02.911Z,101856.84
2023-01-11T15:13:36.509Z,101840.16
2023-01-11T15:16:39.276Z,101853.41
2023-01-11T15:19:33.902Z,101856.69
2023-01-11T15:22:06.017Z,101847.63
2023-01-11T15:24:39.933Z,101849.59
2023-01-11T15:27:07.000Z,101852.97
2023-01-11T15:29:47.109Z,101854.06
2023-01-11T15:32:17.237Z,101852.28
2023-01-11T15:34:47.988Z,101857.31
2023-01-11T15:37:28.695Z,101862.44
2023-01-11T15:40:11.804Z,101865.81
2023-01-11T15:42:38.776Z,101874.47
2023-01-11T15:46:00.240Z,101890.97
2023-01-11T15:48:48.791Z,101879.97
2023-01-11T15:51:16.137Z,101890.31
2023-01-11T15:54:02.322Z,101881.28
2023-01-11T15:57:09.144Z,101894.41
2023-01-11T16:00:01.119Z,101899.66
2023-01-11T16:02:57.608Z,101890.16
2023-01-11T16:05:30.056Z,101878.38
2023-01-11T16:08:13.133Z,101872.81
2023-01-11T16:10:53.112Z,101893.56
2023-01-11T16:13:45.729Z,101901.56
2023-01-11T16:16:22.488Z,101894.31
2023-01-11T16:18:54.788Z,101903.19
2023-01-11T16:21:33.855Z,101898.91
2023-01-11T16:24:05.813Z,101873.69
2023-01-11T16:26:35.919Z,101873.00
2023-01-11T16:29:22.597Z,101855.53
2023-01-11T16:32:01.348Z,101862.91
2023-01-11T16:34:38.095Z,101848.19
2023-01-11T16:37:20.311Z,101843.69
2023-01-11T16:39:51.755Z,101856.00
2023-01-11T16:42:19.562Z,101854.44
2023-01-11T16:44:55.214Z,101855.31
2023-01-11T16:47:22.591Z,101858.22
2023-01-11T16:50:18.065Z,101863.19
2023-01-11T16:52:49.559Z,101875.66
2023-01-11T16:55:21.246Z,101850.38
2023-01-11T16:57:53.245Z,101847.56
2023-01-11T17:00:32.399Z,101857.03
2023-01-11T17:03:16.652Z,101877.41
2023-01-11T17:06:02.379Z,101880.00
2023-01-11T17:08:37.730Z,101877.34
2023-01-11T17:11:17.858Z,101872.66
2023-01-11T17:14:00.133Z,101878.09
2023-01-11T17:16:36.279Z,101875.59
2023-01-11T17:19:16.774Z,101875.59
2023-01-11T17:21:53.718Z,101869.53
2023-01-11T17:24:25.273Z,101864.97
2023-01-11T17:27:23.344Z,101861.53
2023-01-11T17:29:53.964Z,101866.19
2023-01-11T17:32:43.814Z,101864.19
2023-01-11T17:35:37.140Z,101866.72
2023-01-11T17:38:15.840Z,101855.63
2023-01-11T17:40:45.088Z,101851.31
2023-01-11T17:43:43.023Z,101844.34
2023-01-11T17:46:25.695Z,101836.50
2023-01-11T17:48:57.285Z,101840.09
2023-01-11T17:51:31.564Z,101839.16
2023-01-11T17:54:00.423Z,101835.00
2023-01-11T17:56:38.288Z,101825.41
2023-01-11T17:59:11.985Z,101822.91
2023-01-11T18:01:39.439Z,101820.59
2023-01-11T18:04:19.783Z,101842.19
2023-01-11T18:06:48.693Z,101862.28
2023-01-11T18:09:29.380Z,101865.84
2023-01-11T18:12:18.906Z,101871.09
2023-01-11T18:14:59.643Z,101852.00
2023-01-11T18:17:39.076Z,101843.31
2023-01-11T18:20:32.926Z,101828.97
2023-01-11T18:23:07.729Z,101828.16
2023-01-11T18:25:39.771Z,101828.16
2023-01-11T18:28:30.852Z,101826.97
2023-01-11T18:31:02.036Z,101830.44
2023-01-11T18:33:32.587Z,101833.72
2023-01-11T18:36:03.827Z,101841.56
2023-01-11T18:38:36.068Z,101842.31
2023-01-11T18:41:40.386Z,101851.13
2023-01-11T18:44:09.300Z,101851.84
2023-01-11T18:46:41.347Z,101851.13
2023-01-11T18:49:08.393Z,101845.94
2023-01-11T18:51:41.781Z,101831.13
2023-01-11T18:54:26.933Z,101831.13
2023-01-11T18:56:54.439Z,101836.13
2023-01-11T18:59:22.213Z,101842.16
2023-01-11T19:02:01.485Z,101851.72
2023-01-11T19:04:39.334Z,101851.66
2023-01-11T19:07:06.892Z,101854.25
2023-01-11T19:09:34.039Z,101850.91
2023-01-11T19:12:01.507Z,101842.16
2023-01-11T19:14:31.173Z,101859.09
2023-01-11T19:17:00.205Z,101850.38
2023-01-11T19:19:30.982Z,101855.69
2023-01-11T19:21:58.472Z,101847.94
2023-01-11T19:24:25.527Z,101834.69
2023-01-11T19:26:53.049Z,101832.50
2023-01-11T19:29:20.385Z,101827.41
2023-01-11T19:31:57.764Z,101831.03
2023-01-11T19:34:25.000Z,101827.59
2023-01-11T19:36:52.659Z,101833.72
2023-01-11T19:39:20.675Z,101810.34
2023-01-11T19:41:57.772Z,101812.75
2023-01-11T19:44:27.375Z,101816.69
2023-01-11T19:47:11.261Z,101804.69
2023-01-11T19:49:40.428Z,101802.47
2023-01-11T19:52:13.938Z,101796.59
2023-01-11T19:54:44.037Z,101807.09
2023-01-11T19:57:14.508Z,101794.97
2023-01-11T19:59:43.478Z,101789.13
2023-01-11T20:02:12.936Z,101783.09
2023-01-11T20:04:51.722Z,101777.75
2023-01-11T20:07:19.869Z,101796.06
2023-01-11T20:09:47.007Z,101782.94
2023-01-11T20:12:18.584Z,101778.78
2023-01-11T20:14:48.851Z,101774.69
2023-01-11T20:17:24.875Z,101765.78
2023-01-11T20:19:54.655Z,101769.34
2023-01-11T20:22:25.815Z,101779.81
2023-01-11T20:24:53.624Z,101784.13
2023-01-11T20:27:23.264Z,101770.22
2023-01-11T20:29:50.213Z,101770.38
2023-01-11T20:32:39.850Z,101780.13
2023-01-11T20:35:06.063Z,101791.31
2023-01-11T20:37:33.687Z,101792.22
2023-01-11T20:40:01.541Z,101781.63
2023-01-11T20:42:30.587Z,101783.34
2023-01-11T20:44:57.742Z,101783.34
2023-01-11T20:47:26.692Z,101777.41
2023-01-11T20:49:55.244Z,101772.19
2023-01-11T20:52:27.685Z,101772.72
2023-01-11T20:54:54.590Z,101791.44
2023-01-11T20:57:21.942Z,101779.19
2023-01-11T20:59:48.943Z,101766.91
2023-01-11T21:02:16.332Z,101776.03
2023-01-11T21:04:43.879Z,101786.41
2023-01-11T21:07:11.449Z,101767.25
2023-01-11T21:09:41.715Z,101780.25
2023-01-11T21:12:19.673Z,101784.75
2023-01-11T21:14:46.929Z,101777.78
2023-01-11T21:17:14.368Z,101784.00
2023-01-11T21:19:42.986Z,101788.31
2023-01-11T21:22:10.432Z,101777.97
2023-01-11T21:24:41.204Z,101770.97
2023-01-11T21:27:08.609Z,101768.03
2023-01-11T21:29:35.686Z,101800.41
2023-01-11T21:32:03.121Z,101795.13
2023-01-11T21:34:30.068Z,101796.88
2023-01-11T21:36:57.414Z,101800.56
2023-01-11T21:39:31.131Z,101794.47
2023-01-11T21:42:10.547Z,101810.16
2023-01-11T21:44:37.692Z,101777.97
2023-01-11T21:47:06.501Z,101777.47
2023-01-11T21:49:34.679Z,101773.16
2023-01-11T21:52:05.030Z,101772.91
2023-01-11T21:54:33.543Z,101777.34
2023-01-11T21:57:03.193Z,101789.44
2023-01-11T21:59:34.531Z,101771.84
2023-01-11T22:02:05.384Z,101765.06
2023-01-11T22:04:32.559Z,101781.47
2023-01-11T22:07:00.633Z,101770.97
2023-01-11T22:09:28.559Z,101779.69
2023-01-11T22:11:58.928Z,101754.91
2023-01-11T22:14:26.063Z,101769.84
2023-01-11T22:16:53.734Z,101761.03
2023-01-11T22:19:21.536Z,101762.88
2023-01-11T22:21:48.934Z,101754.13
2023-01-11T22:24:17.128Z,101757.50
2023-01-11T22:26:44.507Z,101772.47
2023-01-11T22:29:17.750Z,101777.94
2023-01-11T22:31:57.119Z,101769.31
2023-01-11T22:34:24.580Z,101771.09
2023-01-11T22:36:53.633Z,101778.19
2023-01-11T22:39:21.333Z,101775.50
2023-01-11T22:41:49.050Z,101778.97
2023-01-11T22:44:17.762Z,101776.22
2023-01-11T22:46:45.295Z,101792.81
2023-01-11T22:49:12.934Z,101787.72
2023-01-11T22:51:41.796Z,101778.09
2023-01-11T22:54:09.255Z,101765.00
2023-01-11T22:56:36.813Z,101755.56
2023-01-11T22:59:04.148Z,101733.03
2023-01-11T23:01:35.748Z,101736.47
2023-01-11T23:04:03.804Z,101736.47
2023-01-11T23:06:34.030Z,101736.38
2023-01-11T23:09:01.438Z,101737.41
2023-01-11T23:11:49.870Z,101719.97
2023-01-11T23:14:19.525Z,101711.25
2023-01-11T23:16:50.576Z,101723.41
2023-01-11T23:19:21.254Z,101731.19
2023-01-11T23:21:48.571Z,101727.03
2023-01-11T23:24:16.499Z,101712.28
2023-01-11T23:26:44.742Z,101706.09
2023-01-11T23:29:12.248Z,101718.22
2023-01-11T23:31:40.179Z,101709.59
2023-01-11T23:34:08.599Z,101716.41
2023-01-11T23:36:41.262Z,101701.72
2023-01-11T23:39:12.408Z,101719.88
2023-01-11T23:41:58.575Z,101730.13
2023-01-11T23:44:25.669Z,101732.63
2023-01-11T23:47:11.933Z,101738.91
2023-01-11T23:49:39.810Z,101737.19
2023-01-11T23:52:07.319Z,101737.09
2023-01-11T23:54:35.109Z,101738.84
2023-01-11T23:57:04.180Z,101734.81
2023-01-11T23:59:31.229Z,101730.59
